sensor_id;sensor_type;location;lat;lon;timestamp;pressure;altitude;pressure_sealevel;temperature;humidity
39223;BME280;24936;46.328;11.026;2022-11-13T00:02:08;95377.72;;;5.30;100.00
39223;BME280;24936;46.328;11.026;2022-11-13T00:04:33;95374.13;;;5.38;100.00
39223;BME280;24936;46.328;11.026;2022-11-13T00:06:59;95380.47;;;5.46;100.00
39223;BME280;24936;46.328;11.026;2022-11-13T00:09:24;95369.00;;;5.49;100.00
39223;BME280;24936;46.328;11.026;2022-11-13T00:11:50;95374.28;;;5.45;100.00
39223;BME280;24936;46.328;11.026;2022-11-13T00:14:15;95368.31;;;5.52;100.00
39223;BME280;24936;46.328;11.026;2022-11-13T00:16:40;95366.19;;;5.57;100.00
39223;BME280;24936;46.328;11.026;2022-11-13T00:19:06;95366.31;;;5.49;100.00
39223;BME280;24936;46.328;11.026;2022-11-13T00:21:31;95362.69;;;5.41;100.00
39223;BME280;24936;46.328;11.026;2022-11-13T00:23:57;95356.31;;;5.46;100.00
39223;BME280;24936;46.328;11.026;2022-11-13T00:26:25;95347.53;;;5.49;100.00
39223;BME280;24936;46.328;11.026;2022-11-13T00:28:59;95337.75;;;5.56;100.00
39223;BME280;24936;46.328;11.026;2022-11-13T00:31:25;95343.56;;;5.58;100.00
39223;BME280;24936;46.328;11.026;2022-11-13T00:33:51;95340.03;;;5.54;100.00
39223;BME280;24936;46.328;11.026;2022-11-13T00:36:22;95338.88;;;5.55;100.00
39223;BME280;24936;46.328;11.026;2022-11-13T00:38:48;95337.06;;;5.59;100.00
39223;BME280;24936;46.328;11.026;2022-11-13T00:41:13;95334.13;;;5.65;100.00
39223;BME280;24936;46.328;11.026;2022-11-13T00:43:39;95331.69;;;5.59;100.00
39223;BME280;24936;46.328;11.026;2022-11-13T00:46:05;95329.69;;;5.56;100.00
39223;BME280;24936;46.328;11.026;2022-11-13T00:48:31;95325.19;;;5.60;100.00
39223;BME280;24936;46.328;11.026;2022-11-13T00:50:57;95325.19;;;5.60;100.00
39223;BME280;24936;46.328;11.026;2022-11-13T00:53:22;95315.69;;;5.63;100.00
39223;BME280;24936;46.328;11.026;2022-11-13T00:55:47;95310.91;;;5.72;100.00
39223;BME280;24936;46.328;11.026;2022-11-13T00:58:14;95300.41;;;5.83;100.00
39223;BME280;24936;46.328;11.026;2022-11-13T01:00:41;95294.06;;;5.91;100.00
39223;BME280;24936;46.328;11.026;2022-11-13T01:03:07;95298.38;;;5.92;100.00
39223;BME280;24936;46.328;11.026;2022-11-13T01:05:40;95299.91;;;5.77;100.00
39223;BME280;24936;46.328;11.026;2022-11-13T01:08:07;95308.75;;;5.78;100.00
39223;BME280;24936;46.328;11.026;2022-11-13T01:10:33;95307.03;;;5.70;100.00
39223;BME280;24936;46.328;11.026;2022-11-13T01:12:58;95309.78;;;5.73;100.00
39223;BME280;24936;46.328;11.026;2022-11-13T01:15:25;95305.47;;;5.84;100.00
39223;BME280;24936;46.328;11.026;2022-11-13T01:17:50;95302.41;;;5.86;100.00
39223;BME280;24936;46.328;11.026;2022-11-13T01:20:16;95310.41;;;5.67;100.00
39223;BME280;24936;46.328;11.026;2022-11-13T01:22:41;95309.53;;;5.62;100.00
39223;BME280;24936;46.328;11.026;2022-11-13T01:25:07;95312.63;;;5.65;100.00
39223;BME280;24936;46.328;11.026;2022-11-13T01:27:35;95314.53;;;5.48;100.00
39223;BME280;24936;46.328;11.026;2022-11-13T01:30:01;95313.59;;;5.41;100.00
39223;BME280;24936;46.328;11.026;2022-11-13T01:32:26;95319.38;;;5.27;100.00
39223;BME280;24936;46.328;11.026;2022-11-13T01:34:52;95318.88;;;5.53;100.00
39223;BME280;24936;46.328;11.026;2022-11-13T01:37:17;95319.31;;;5.55;100.00
39223;BME280;24936;46.328;11.026;2022-11-13T01:39:42;95310.41;;;5.51;100.00
39223;BME280;24936;46.328;11.026;2022-11-13T01:42:08;95306.84;;;5.62;100.00
39223;BME280;24936;46.328;11.026;2022-11-13T01:44:52;95300.69;;;5.62;100.00
39223;BME280;24936;46.328;11.026;2022-11-13T01:47:18;95289.25;;;5.49;100.00
39223;BME280;24936;46.328;11.026;2022-11-13T01:49:45;95282.41;;;5.52;100.00
39223;BME280;24936;46.328;11.026;2022-11-13T01:52:17;95272.72;;;5.63;100.00
39223;BME280;24936;46.328;11.026;2022-11-13T01:54:57;95273.63;;;5.86;100.00
39223;BME280;24936;46.328;11.026;2022-11-13T01:57:25;95266.72;;;6.01;100.00
39223;BME280;24936;46.328;11.026;2022-11-13T01:59:54;95267.25;;;6.07;100.00
39223;BME280;24936;46.328;11.026;2022-11-13T02:02:21;95275.47;;;5.98;100.00
39223;BME280;24936;46.328;11.026;2022-11-13T02:04:46;95280.34;;;5.77;100.00
39223;BME280;24936;46.328;11.026;2022-11-13T02:07:14;95283.63;;;5.70;100.00
39223;BME280;24936;46.328;11.026;2022-11-13T02:09:46;95275.84;;;5.65;100.00
39223;BME280;24936;46.328;11.026;2022-11-13T02:12:15;95278.09;;;5.63;100.00
39223;BME280;24936;46.328;11.026;2022-11-13T02:14:43;95272.88;;;5.70;100.00
39223;BME280;24936;46.328;11.026;2022-11-13T02:17:14;95271.34;;;5.69;100.00
39223;BME280;24936;46.328;11.026;2022-11-13T02:19:47;95283.28;;;5.40;100.00
39223;BME280;24936;46.328;11.026;2022-11-13T02:22:34;95277.75;;;5.33;100.00
39223;BME280;24936;46.328;11.026;2022-11-13T02:25:02;95276.59;;;5.34;100.00
39223;BME280;24936;46.328;11.026;2022-11-13T02:30:13;95273.00;;;5.42;100.00
39223;BME280;24936;46.328;11.026;2022-11-13T02:32:43;95266.69;;;5.34;100.00
39223;BME280;24936;46.328;11.026;2022-11-13T02:35:10;95268.03;;;5.12;100.00
39223;BME280;24936;46.328;11.026;2022-11-13T02:37:36;95264.22;;;4.98;100.00
39223;BME280;24936;46.328;11.026;2022-11-13T02:40:01;95263.25;;;4.90;100.00
39223;BME280;24936;46.328;11.026;2022-11-13T02:42:27;95265.56;;;4.92;100.00
39223;BME280;24936;46.328;11.026;2022-11-13T02:44:53;95265.22;;;4.77;100.00
39223;BME280;24936;46.328;11.026;2022-11-13T02:47:18;95267.25;;;4.68;100.00
39223;BME280;24936;46.328;11.026;2022-11-13T02:49:43;95267.78;;;4.74;100.00
39223;BME280;24936;46.328;11.026;2022-11-13T02:52:09;95261.66;;;4.73;100.00
39223;BME280;24936;46.328;11.026;2022-11-13T02:54:34;95265.13;;;4.61;100.00
39223;BME280;24936;46.328;11.026;2022-11-13T02:57:00;95255.53;;;4.60;100.00
39223;BME280;24936;46.328;11.026;2022-11-13T02:59:25;95255.69;;;4.52;100.00
39223;BME280;24936;46.328;11.026;2022-11-13T03:01:50;95250.13;;;4.45;100.00
39223;BME280;24936;46.328;11.026;2022-11-13T03:04:16;95247.72;;;4.27;100.00
39223;BME280;24936;46.328;11.026;2022-11-13T03:06:41;95247.81;;;4.03;100.00
39223;BME280;24936;46.328;11.026;2022-11-13T03:09:06;95259.75;;;3.81;100.00
39223;BME280;24936;46.328;11.026;2022-11-13T03:11:32;95264.69;;;3.79;100.00
39223;BME280;24936;46.328;11.026;2022-11-13T03:13:57;95264.47;;;3.59;100.00
39223;BME280;24936;46.328;11.026;2022-11-13T03:16:23;95267.47;;;3.58;100.00
39223;BME280;24936;46.328;11.026;2022-11-13T03:18:48;95263.13;;;3.41;100.00
39223;BME280;24936;46.328;11.026;2022-11-13T03:21:14;95260.22;;;3.34;100.00
39223;BME280;24936;46.328;11.026;2022-11-13T03:23:41;95258.75;;;3.24;100.00
39223;BME280;24936;46.328;11.026;2022-11-13T03:26:12;95257.84;;;3.20;100.00
39223;BME280;24936;46.328;11.026;2022-11-13T03:28:38;95262.66;;;3.14;100.00
39223;BME280;24936;46.328;11.026;2022-11-13T03:31:04;95265.72;;;2.92;100.00
39223;BME280;24936;46.328;11.026;2022-11-13T03:33:30;95268.19;;;2.97;100.00
39223;BME280;24936;46.328;11.026;2022-11-13T03:35:56;95272.47;;;2.77;100.00
39223;BME280;24936;46.328;11.026;2022-11-13T03:38:21;95271.44;;;2.69;100.00
39223;BME280;24936;46.328;11.026;2022-11-13T03:40:47;95265.88;;;2.75;100.00
39223;BME280;24936;46.328;11.026;2022-11-13T03:43:13;95267.97;;;2.57;100.00
39223;BME280;24936;46.328;11.026;2022-11-13T03:45:38;95265.91;;;2.41;100.00
39223;BME280;24936;46.328;11.026;2022-11-13T03:48:05;95267.97;;;2.36;100.00
39223;BME280;24936;46.328;11.026;2022-11-13T03:50:47;95266.28;;;2.31;100.00
39223;BME280;24936;46.328;11.026;2022-11-13T03:53:13;95267.53;;;2.34;100.00
39223;BME280;24936;46.328;11.026;2022-11-13T03:55:39;95272.63;;;2.27;100.00
39223;BME280;24936;46.328;11.026;2022-11-13T03:58:05;95267.28;;;2.27;100.00
39223;BME280;24936;46.328;11.026;2022-11-13T04:00:31;95270.72;;;2.06;100.00
39223;BME280;24936;46.328;11.026;2022-11-13T04:02:56;95271.81;;;2.05;100.00
39223;BME280;24936;46.328;11.026;2022-11-13T04:05:21;95272.16;;;2.04;100.00
39223;BME280;24936;46.328;11.026;2022-11-13T04:07:47;95270.25;;;2.04;100.00
39223;BME280;24936;46.328;11.026;2022-11-13T04:10:13;95276.75;;;1.94;100.00
39223;BME280;24936;46.328;11.026;2022-11-13T04:12:39;95275.69;;;1.87;100.00
39223;BME280;24936;46.328;11.026;2022-11-13T04:15:05;95275.41;;;1.88;100.00
39223;BME280;24936;46.328;11.026;2022-11-13T04:17:31;95288.09;;;1.91;100.00
39223;BME280;24936;46.328;11.026;2022-11-13T04:19:56;95292.31;;;1.92;100.00
39223;BME280;24936;46.328;11.026;2022-11-13T04:22:21;95283.25;;;1.85;100.00
39223;BME280;24936;46.328;11.026;2022-11-13T04:24:47;95283.25;;;1.85;100.00
39223;BME280;24936;46.328;11.026;2022-11-13T04:27:12;95289.75;;;1.75;100.00
39223;BME280;24936;46.328;11.026;2022-11-13T04:29:38;95287.41;;;1.74;100.00
39223;BME280;24936;46.328;11.026;2022-11-13T04:32:03;95296.06;;;1.70;100.00
39223;BME280;24936;46.328;11.026;2022-11-13T04:34:29;95293.66;;;1.78;100.00
39223;BME280;24936;46.328;11.026;2022-11-13T04:36:54;95304.06;;;1.70;100.00
39223;BME280;24936;46.328;11.026;2022-11-13T04:39:19;95298.38;;;1.81;100.00
39223;BME280;24936;46.328;11.026;2022-11-13T04:41:45;95295.63;;;1.89;100.00
39223;BME280;24936;46.328;11.026;2022-11-13T04:44:29;95302.50;;;1.99;100.00
39223;BME280;24936;46.328;11.026;2022-11-13T04:46:54;95300.59;;;2.00;100.00
39223;BME280;24936;46.328;11.026;2022-11-13T04:49:19;95302.22;;;1.92;100.00
39223;BME280;24936;46.328;11.026;2022-11-13T04:51:45;95296.56;;;1.93;100.00
39223;BME280;24936;46.328;11.026;2022-11-13T04:54:10;95302.94;;;2.01;100.00
39223;BME280;24936;46.328;11.026;2022-11-13T04:56:35;95308.63;;;2.20;100.00
39223;BME280;24936;46.328;11.026;2022-11-13T04:59:01;95306.16;;;2.15;100.00
39223;BME280;24936;46.328;11.026;2022-11-13T05:01:26;95306.94;;;2.16;100.00
39223;BME280;24936;46.328;11.026;2022-11-13T05:03:52;95294.19;;;2.22;100.00
39223;BME280;24936;46.328;11.026;2022-11-13T05:06:17;95295.78;;;2.35;100.00
39223;BME280;24936;46.328;11.026;2022-11-13T05:08:42;95290.19;;;2.49;100.00
39223;BME280;24936;46.328;11.026;2022-11-13T05:11:08;95289.59;;;2.43;100.00
39223;BME280;24936;46.328;11.026;2022-11-13T05:13:34;95289.81;;;2.38;100.00
39223;BME280;24936;46.328;11.026;2022-11-13T05:16:01;95279.31;;;2.33;100.00
39223;BME280;24936;46.328;11.026;2022-11-13T05:18:26;95292.22;;;2.31;100.00
39223;BME280;24936;46.328;11.026;2022-11-13T05:20:52;95291.09;;;2.32;100.00
39223;BME280;24936;46.328;11.026;2022-11-13T05:23:17;95283.63;;;2.25;100.00
39223;BME280;24936;46.328;11.026;2022-11-13T05:25:42;95289.53;;;2.10;100.00
39223;BME280;24936;46.328;11.026;2022-11-13T05:28:08;95286.28;;;2.04;100.00
39223;BME280;24936;46.328;11.026;2022-11-13T05:30:33;95292.88;;;2.07;100.00
39223;BME280;24936;46.328;11.026;2022-11-13T05:32:58;95288.00;;;2.30;100.00
39223;BME280;24936;46.328;11.026;2022-11-13T05:35:24;95282.97;;;2.49;100.00
39223;BME280;24936;46.328;11.026;2022-11-13T05:37:49;95266.06;;;2.36;100.00
39223;BME280;24936;46.328;11.026;2022-11-13T05:40:15;95270.63;;;2.36;100.00
39223;BME280;24936;46.328;11.026;2022-11-13T05:42:40;95273.19;;;2.53;100.00
39223;BME280;24936;46.328;11.026;2022-11-13T05:45:06;95266.88;;;2.37;100.00
39223;BME280;24936;46.328;11.026;2022-11-13T05:47:32;95274.03;;;2.24;100.00
39223;BME280;24936;46.328;11.026;2022-11-13T05:49:57;95281.34;;;2.15;100.00
39223;BME280;24936;46.328;11.026;2022-11-13T05:52:22;95278.03;;;2.18;100.00
39223;BME280;24936;46.328;11.026;2022-11-13T05:54:48;95274.03;;;2.24;100.00
39223;BME280;24936;46.328;11.026;2022-11-13T05:57:13;95266.50;;;2.26;100.00
39223;BME280;24936;46.328;11.026;2022-11-13T05:59:38;95272.88;;;2.34;100.00
39223;BME280;24936;46.328;11.026;2022-11-13T06:02:04;95265.13;;;2.20;100.00
39223;BME280;24936;46.328;11.026;2022-11-13T06:04:29;95263.88;;;2.17;100.00
39223;BME280;24936;46.328;11.026;2022-11-13T06:06:54;95260.09;;;1.98;100.00
39223;BME280;24936;46.328;11.026;2022-11-13T06:09:20;95256.09;;;1.83;100.00
39223;BME280;24936;46.328;11.026;2022-11-13T06:11:45;95257.34;;;1.85;100.00
39223;BME280;24936;46.328;11.026;2022-11-13T06:14:11;95258.91;;;1.65;100.00
39223;BME280;24936;46.328;11.026;2022-11-13T06:16:37;95250.56;;;1.67;100.00
39223;BME280;24936;46.328;11.026;2022-11-13T06:19:08;95252.03;;;1.56;100.00
39223;BME280;24936;46.328;11.026;2022-11-13T06:21:37;95265.28;;;1.43;100.00
39223;BME280;24936;46.328;11.026;2022-11-13T06:24:04;95284.28;;;1.33;100.00
39223;BME280;24936;46.328;11.026;2022-11-13T06:26:32;95310.19;;;1.33;100.00
39223;BME280;24936;46.328;11.026;2022-11-13T06:28:59;95322.28;;;1.21;100.00
39223;BME280;24936;46.328;11.026;2022-11-13T06:31:30;95342.13;;;1.03;100.00
39223;BME280;24936;46.328;11.026;2022-11-13T06:33:57;95353.22;;;1.05;100.00
39223;BME280;24936;46.328;11.026;2022-11-13T06:36:29;95367.50;;;1.01;100.00
39223;BME280;24936;46.328;11.026;2022-11-13T06:38:55;95367.03;;;1.07;100.00
39223;BME280;24936;46.328;11.026;2022-11-13T06:41:23;95367.03;;;1.07;100.00
39223;BME280;24936;46.328;11.026;2022-11-13T06:43:49;95360.13;;;1.06;100.00
39223;BME280;24936;46.328;11.026;2022-11-13T06:46:22;95343.19;;;1.19;100.00
39223;BME280;24936;46.328;11.026;2022-11-13T06:48:48;95317.88;;;1.34;100.00
39223;BME280;24936;46.328;11.026;2022-11-13T06:51:19;95308.69;;;1.82;100.00
39223;BME280;24936;46.328;11.026;2022-11-13T06:53:45;95322.72;;;2.30;100.00
39223;BME280;24936;46.328;11.026;2022-11-13T06:56:11;95326.53;;;2.20;100.00
39223;BME280;24936;46.328;11.026;2022-11-13T06:58:36;95337.81;;;2.26;100.00
39223;BME280;24936;46.328;11.026;2022-11-13T07:01:09;95344.47;;;2.40;100.00
39223;BME280;24936;46.328;11.026;2022-11-13T07:03:35;95335.63;;;2.49;100.00
39223;BME280;24936;46.328;11.026;2022-11-13T07:06:02;95320.81;;;2.51;100.00
39223;BME280;24936;46.328;11.026;2022-11-13T07:08:28;95310.25;;;2.55;100.00
39223;BME280;24936;46.328;11.026;2022-11-13T07:10:54;95297.66;;;2.76;100.00
39223;BME280;24936;46.328;11.026;2022-11-13T07:13:21;95286.72;;;3.02;100.00
39223;BME280;24936;46.328;11.026;2022-11-13T07:15:47;95295.88;;;3.26;100.00
39223;BME280;24936;46.328;11.026;2022-11-13T07:18:12;95296.91;;;3.33;100.00
39223;BME280;24936;46.328;11.026;2022-11-13T07:20:37;95307.72;;;3.37;100.00
39223;BME280;24936;46.328;11.026;2022-11-13T07:23:03;95309.50;;;3.33;100.00
39223;BME280;24936;46.328;11.026;2022-11-13T07:25:29;95313.25;;;3.32;100.00
39223;BME280;24936;46.328;11.026;2022-11-13T07:27:55;95306.81;;;3.33;100.00
39223;BME280;24936;46.328;11.026;2022-11-13T07:30:21;95299.16;;;3.44;100.00
39223;BME280;24936;46.328;11.026;2022-11-13T07:32:46;95288.09;;;3.57;100.00
39223;BME280;24936;46.328;11.026;2022-11-13T07:35:12;95289.47;;;3.51;100.00
39223;BME280;24936;46.328;11.026;2022-11-13T07:37:37;95288.00;;;3.54;100.00
39223;BME280;24936;46.328;11.026;2022-11-13T07:40:04;95302.72;;;3.48;100.00
39223;BME280;24936;46.328;11.026;2022-11-13T07:42:30;95305.47;;;3.39;100.00
39223;BME280;24936;46.328;11.026;2022-11-13T07:44:55;95301.38;;;3.54;100.00
39223;BME280;24936;46.328;11.026;2022-11-13T07:47:21;95303.63;;;3.76;100.00
39223;BME280;24936;46.328;11.026;2022-11-13T07:49:47;95309.44;;;3.78;100.00
39223;BME280;24936;46.328;11.026;2022-11-13T07:52:12;95321.47;;;3.72;100.00
39223;BME280;24936;46.328;11.026;2022-11-13T07:54:38;95328.47;;;3.77;100.00
39223;BME280;24936;46.328;11.026;2022-11-13T07:57:03;95320.78;;;4.00;100.00
39223;BME280;24936;46.328;11.026;2022-11-13T07:59:28;95320.69;;;4.08;100.00
39223;BME280;24936;46.328;11.026;2022-11-13T08:01:54;95320.63;;;4.33;100.00
39223;BME280;24936;46.328;11.026;2022-11-13T08:04:19;95316.19;;;4.65;100.00
39223;BME280;24936;46.328;11.026;2022-11-13T08:06:45;95314.25;;;4.78;100.00
39223;BME280;24936;46.328;11.026;2022-11-13T08:09:10;95318.22;;;4.84;100.00
39223;BME280;24936;46.328;11.026;2022-11-13T08:11:36;95323.84;;;4.79;100.00
39223;BME280;24936;46.328;11.026;2022-11-13T08:14:01;95324.38;;;4.84;100.00
39223;BME280;24936;46.328;11.026;2022-11-13T08:16:26;95328.47;;;4.66;100.00
39223;BME280;24936;46.328;11.026;2022-11-13T08:18:52;95334.19;;;4.52;100.00
39223;BME280;24936;46.328;11.026;2022-11-13T08:21:17;95347.56;;;4.64;100.00
39223;BME280;24936;46.328;11.026;2022-11-13T08:23:43;95336.72;;;4.73;100.00
39223;BME280;24936;46.328;11.026;2022-11-13T08:26:09;95340.28;;;4.77;100.00
39223;BME280;24936;46.328;11.026;2022-11-13T08:28:34;95341.88;;;4.94;100.00
39223;BME280;24936;46.328;11.026;2022-11-13T08:31:01;95338.19;;;4.99;100.00
39223;BME280;24936;46.328;11.026;2022-11-13T08:33:26;95339.44;;;5.17;100.00
39223;BME280;24936;46.328;11.026;2022-11-13T08:35:56;95339.75;;;5.44;100.00
39223;BME280;24936;46.328;11.026;2022-11-13T08:38:22;95333.94;;;5.89;100.00
39223;BME280;24936;46.328;11.026;2022-11-13T08:40:50;95331.03;;;6.45;100.00
39223;BME280;24936;46.328;11.026;2022-11-13T08:43:16;95309.53;;;8.45;100.00
39223;BME280;24936;46.328;11.026;2022-11-13T08:45:44;95291.59;;;10.85;100.00
39223;BME280;24936;46.328;11.026;2022-11-13T08:48:10;95282.19;;;11.99;100.00
39223;BME280;24936;46.328;11.026;2022-11-13T08:50:35;95273.41;;;12.89;100.00
39223;BME280;24936;46.328;11.026;2022-11-13T08:53:01;95269.06;;;14.25;100.00
39223;BME280;24936;46.328;11.026;2022-11-13T08:55:27;95268.88;;;14.46;100.00
39223;BME280;24936;46.328;11.026;2022-11-13T08:57:53;95257.25;;;14.76;100.00
39223;BME280;24936;46.328;11.026;2022-11-13T09:00:19;95265.16;;;15.01;100.00
39223;BME280;24936;46.328;11.026;2022-11-13T09:02:45;95262.16;;;15.23;100.00
39223;BME280;24936;46.328;11.026;2022-11-13T09:05:10;95267.63;;;15.77;100.00
39223;BME280;24936;46.328;11.026;2022-11-13T09:07:36;95264.91;;;15.77;100.00
39223;BME280;24936;46.328;11.026;2022-11-13T09:10:01;95259.38;;;16.51;100.00
39223;BME280;24936;46.328;11.026;2022-11-13T09:12:27;95263.78;;;16.45;100.00
39223;BME280;24936;46.328;11.026;2022-11-13T09:14:52;95256.78;;;17.23;100.00
39223;BME280;24936;46.328;11.026;2022-11-13T09:17:18;95258.81;;;17.92;100.00
39223;BME280;24936;46.328;11.026;2022-11-13T09:19:43;95249.91;;;18.04;100.00
39223;BME280;24936;46.328;11.026;2022-11-13T09:22:09;95247.31;;;18.30;100.00
39223;BME280;24936;46.328;11.026;2022-11-13T09:24:35;95241.88;;;18.88;100.00
39223;BME280;24936;46.328;11.026;2022-11-13T09:27:00;95241.69;;;18.95;100.00
39223;BME280;24936;46.328;11.026;2022-11-13T09:29:25;95240.88;;;19.23;100.00
39223;BME280;24936;46.328;11.026;2022-11-13T09:31:53;95241.31;;;19.60;100.00
39223;BME280;24936;46.328;11.026;2022-11-13T09:34:19;95246.25;;;19.27;99.11
39223;BME280;24936;46.328;11.026;2022-11-13T09:36:44;95233.88;;;19.48;94.02
39223;BME280;24936;46.328;11.026;2022-11-13T09:39:10;95238.66;;;18.77;100.00
39223;BME280;24936;46.328;11.026;2022-11-13T09:41:39;95231.81;;;18.68;96.45
39223;BME280;24936;46.328;11.026;2022-11-13T09:44:21;95234.41;;;18.14;100.00
39223;BME280;24936;46.328;11.026;2022-11-13T09:46:55;95235.13;;;18.01;100.00
39223;BME280;24936;46.328;11.026;2022-11-13T09:49:33;95225.47;;;19.01;100.00
39223;BME280;24936;46.328;11.026;2022-11-13T09:52:14;95217.34;;;18.97;100.00
39223;BME280;24936;46.328;11.026;2022-11-13T09:54:41;95207.09;;;18.26;100.00
39223;BME280;24936;46.328;11.026;2022-11-13T09:59:56;95196.63;;;17.23;100.00
39223;BME280;24936;46.328;11.026;2022-11-13T10:05:26;95181.97;;;17.50;100.00
39223;BME280;24936;46.328;11.026;2022-11-13T10:08:20;95181.53;;;16.99;100.00
39223;BME280;24936;46.328;11.026;2022-11-13T10:13:23;95177.38;;;15.91;100.00
39223;BME280;24936;46.328;11.026;2022-11-13T10:15:51;95173.75;;;15.47;100.00
39223;BME280;24936;46.328;11.026;2022-11-13T10:18:25;95167.75;;;15.05;100.00
39223;BME280;24936;46.328;11.026;2022-11-13T10:20:54;95168.16;;;14.43;100.00
39223;BME280;24936;46.328;11.026;2022-11-13T10:23:34;95162.78;;;14.35;100.00
39223;BME280;24936;46.328;11.026;2022-11-13T10:26:13;95153.84;;;14.01;100.00
39223;BME280;24936;46.328;11.026;2022-11-13T10:28:40;95144.19;;;14.27;100.00
39223;BME280;24936;46.328;11.026;2022-11-13T10:31:09;95145.06;;;14.20;100.00
39223;BME280;24936;46.328;11.026;2022-11-13T10:33:35;95139.19;;;14.59;100.00
39223;BME280;24936;46.328;11.026;2022-11-13T10:38:39;95125.78;;;14.99;100.00
39223;BME280;24936;46.328;11.026;2022-11-13T10:41:18;95119.38;;;14.55;100.00
39223;BME280;24936;46.328;11.026;2022-11-13T10:44:04;95101.06;;;14.59;100.00
39223;BME280;24936;46.328;11.026;2022-11-13T10:46:30;95085.03;;;15.63;100.00
39223;BME280;24936;46.328;11.026;2022-11-13T10:48:57;95078.06;;;16.45;100.00
39223;BME280;24936;46.328;11.026;2022-11-13T10:51:31;95075.13;;;16.72;100.00
39223;BME280;24936;46.328;11.026;2022-11-13T10:53:59;95067.13;;;17.79;100.00
39223;BME280;24936;46.328;11.026;2022-11-13T10:56:30;95061.38;;;18.32;100.00
39223;BME280;24936;46.328;11.026;2022-11-13T10:59:22;95059.72;;;17.30;100.00
39223;BME280;24936;46.328;11.026;2022-11-13T11:01:49;95056.44;;;16.14;100.00
39223;BME280;24936;46.328;11.026;2022-11-13T11:06:43;95050.97;;;16.14;100.00
39223;BME280;24936;46.328;11.026;2022-11-13T11:09:15;95064.91;;;15.33;100.00
39223;BME280;24936;46.328;11.026;2022-11-13T11:11:54;95073.91;;;14.79;100.00
39223;BME280;24936;46.328;11.026;2022-11-13T11:17:33;95072.22;;;14.62;100.00
39223;BME280;24936;46.328;11.026;2022-11-13T11:20:19;95065.53;;;14.94;100.00
39223;BME280;24936;46.328;11.026;2022-11-13T11:22:50;95076.34;;;15.71;100.00
39223;BME280;24936;46.328;11.026;2022-11-13T11:28:05;95062.03;;;14.93;100.00
39223;BME280;24936;46.328;11.026;2022-11-13T11:30:38;95059.28;;;15.20;100.00
39223;BME280;24936;46.328;11.026;2022-11-13T11:35:44;95067.63;;;14.25;100.00
39223;BME280;24936;46.328;11.026;2022-11-13T11:38:59;95065.13;;;14.68;100.00
39223;BME280;24936;46.328;11.026;2022-11-13T11:41:11;95047.34;;;13.99;100.00
39223;BME280;24936;46.328;11.026;2022-11-13T11:43:57;95045.81;;;13.63;100.00
39223;BME280;24936;46.328;11.026;2022-11-13T11:46:27;95039.94;;;14.60;100.00
39223;BME280;24936;46.328;11.026;2022-11-13T11:48:58;95026.44;;;15.27;100.00
39223;BME280;24936;46.328;11.026;2022-11-13T11:51:33;95023.75;;;14.50;100.00
39223;BME280;24936;46.328;11.026;2022-11-13T11:56:52;95014.16;;;13.77;100.00
39223;BME280;24936;46.328;11.026;2022-11-13T11:59:25;95010.97;;;13.51;100.00
39223;BME280;24936;46.328;11.026;2022-11-13T12:04:50;95009.16;;;14.63;100.00
39223;BME280;24936;46.328;11.026;2022-11-13T12:12:53;94992.94;;;13.30;100.00
39223;BME280;24936;46.328;11.026;2022-11-13T12:15:23;94992.34;;;12.60;100.00
39223;BME280;24936;46.328;11.026;2022-11-13T12:26:01;94999.50;;;14.32;100.00
39223;BME280;24936;46.328;11.026;2022-11-13T12:36:40;94977.44;;;13.61;100.00
39223;BME280;24936;46.328;11.026;2022-11-13T12:41:37;94964.16;;;16.05;100.00
39223;BME280;24936;46.328;11.026;2022-11-13T12:44:19;94948.66;;;17.04;100.00
39223;BME280;24936;46.328;11.026;2022-11-13T12:46:46;94937.03;;;16.51;100.00
39223;BME280;24936;46.328;11.026;2022-11-13T12:49:33;94929.00;;;15.31;100.00
39223;BME280;24936;46.328;11.026;2022-11-13T12:52:15;94914.41;;;15.81;100.00
39223;BME280;24936;46.328;11.026;2022-11-13T12:54:41;94905.69;;;16.06;100.00
39223;BME280;24936;46.328;11.026;2022-11-13T12:57:15;94901.66;;;16.11;100.00
39223;BME280;24936;46.328;11.026;2022-11-13T13:18:10;94893.38;;;17.54;100.00
39223;BME280;24936;46.328;11.026;2022-11-13T13:20:38;94873.84;;;17.40;100.00
39223;BME280;24936;46.328;11.026;2022-11-13T13:23:05;94870.28;;;18.36;100.00
39223;BME280;24936;46.328;11.026;2022-11-13T13:25:35;94866.56;;;18.90;100.00
39223;BME280;24936;46.328;11.026;2022-11-13T13:28:01;94865.28;;;19.16;100.00
39223;BME280;24936;46.328;11.026;2022-11-13T13:30:29;94866.22;;;19.22;100.00
39223;BME280;24936;46.328;11.026;2022-11-13T13:33:14;94875.38;;;18.59;100.00
39223;BME280;24936;46.328;11.026;2022-11-13T13:38:31;94859.72;;;18.60;100.00
39223;BME280;24936;46.328;11.026;2022-11-13T13:41:32;94849.34;;;19.46;97.51
39223;BME280;24936;46.328;11.026;2022-11-13T13:44:11;94848.78;;;19.38;100.00
39223;BME280;24936;46.328;11.026;2022-11-13T13:46:40;94849.31;;;18.42;100.00
39223;BME280;24936;46.328;11.026;2022-11-13T13:49:12;94837.75;;;17.87;100.00
39223;BME280;24936;46.328;11.026;2022-11-13T13:51:41;94827.97;;;16.89;100.00
39223;BME280;24936;46.328;11.026;2022-11-13T13:54:08;94831.66;;;17.66;100.00
39223;BME280;24936;46.328;11.026;2022-11-13T13:56:41;94831.19;;;17.42;100.00
39223;BME280;24936;46.328;11.026;2022-11-13T13:59:19;94839.19;;;15.60;100.00
39223;BME280;24936;46.328;11.026;2022-11-13T14:01:54;94829.72;;;15.69;100.00
39223;BME280;24936;46.328;11.026;2022-11-13T14:04:22;94831.03;;;15.97;100.00
39223;BME280;24936;46.328;11.026;2022-11-13T14:06:53;94832.13;;;16.32;100.00
39223;BME280;24936;46.328;11.026;2022-11-13T14:09:24;94832.91;;;15.83;100.00